Time;durP1;ratioP1;P1;durP2;ratioP2;P2;SDS_P1;SDS_P2;PMS_P1;PMS_P2;Temp;Humidity;BMP_temperature;BMP_pressure;BME280_temperature;BME280_humidity;BME280_pressure;Samples;Min_cycle;Max_cycle;Signal;HPM_P1;HPM_P2
2021/10/05 00:02:04;;;;;;;0.40;0.20;;;;;;;14.23;100.00;101209.28;5055154;28;20563;-72
2021/10/05 00:04:31;;;;;;;0.40;0.30;;;;;;;14.23;100.00;101211.19;5055268;28;20903;-72
2021/10/05 00:06:58;;;;;;;0.40;0.23;;;;;;;14.20;100.00;101211.81;5054834;28;20925;-72
2021/10/05 00:09:24;;;;;;;0.40;0.30;;;;;;;14.14;100.00;101213.88;5055048;28;20465;-72
2021/10/05 00:11:52;;;;;;;0.40;0.30;;;;;;;14.21;100.00;101219.69;5054788;28;20985;-72
2021/10/05 00:14:18;;;;;;;0.40;0.23;;;;;;;14.26;100.00;101221.50;5055028;28;20450;-72
2021/10/05 00:16:45;;;;;;;0.40;0.30;;;;;;;14.25;100.00;101214.41;5054689;28;20438;-72
2021/10/05 00:19:11;;;;;;;0.40;0.30;;;;;;;14.24;100.00;101212.81;5054592;28;20478;-72
2021/10/05 00:21:38;;;;;;;0.40;0.30;;;;;;;14.19;100.00;101216.47;5054827;28;20477;-72
2021/10/05 00:24:05;;;;;;;0.40;0.30;;;;;;;14.16;100.00;101219.78;5054540;28;20993;-72
2021/10/05 00:26:31;;;;;;;0.40;0.20;;;;;;;14.17;100.00;101212.44;5054535;28;20453;-72
2021/10/05 00:28:59;;;;;;;0.40;0.30;;;;;;;14.18;100.00;101203.16;5054648;28;20471;-72
2021/10/05 00:31:25;;;;;;;0.40;0.20;;;;;;;14.22;100.00;101210.41;5054705;28;20458;-72
2021/10/05 00:33:52;;;;;;;0.40;0.30;;;;;;;14.29;100.00;101212.66;5054670;28;20450;-72
2021/10/05 00:36:18;;;;;;;0.40;0.30;;;;;;;14.27;100.00;101210.25;5054281;28;20848;-72
2021/10/05 00:38:46;;;;;;;0.40;0.30;;;;;;;14.26;100.00;101211.38;5054567;28;20524;-72
2021/10/05 00:41:12;;;;;;;0.40;0.20;;;;;;;14.28;100.00;101206.41;5054458;28;20902;-72
2021/10/05 00:43:38;;;;;;;0.40;0.20;;;;;;;14.29;100.00;101202.56;5054478;28;20437;-72
2021/10/05 00:46:08;;;;;;;0.40;0.30;;;;;;;14.24;100.00;101202.69;5054418;28;20513;-72
2021/10/05 00:48:35;;;;;;;0.40;0.30;;;;;;;14.20;100.00;101201.72;5053953;28;20505;-72
2021/10/05 00:51:01;;;;;;;0.40;0.30;;;;;;;14.22;100.00;101193.25;5054300;28;20822;-72
2021/10/05 00:53:28;;;;;;;0.40;0.27;;;;;;;14.22;100.00;101177.69;5054344;28;20449;-72
2021/10/05 00:55:55;;;;;;;0.40;0.30;;;;;;;14.22;100.00;101171.44;5054246;28;20449;-72
2021/10/05 00:58:21;;;;;;;0.40;0.30;;;;;;;14.20;100.00;101165.50;5054160;28;20477;-72
2021/10/05 01:00:48;;;;;;;0.40;0.30;;;;;;;14.23;100.00;101154.78;5053820;28;20939;-72
2021/10/05 01:03:15;;;;;;;0.40;0.30;;;;;;;14.24;100.00;101156.38;5053985;28;20485;-72
2021/10/05 01:05:42;;;;;;;0.40;0.30;;;;;;;14.28;100.00;101165.53;5054082;28;20453;-72
2021/10/05 01:08:08;;;;;;;0.40;0.20;;;;;;;14.31;100.00;101164.94;5053618;28;20863;-72
2021/10/05 01:10:36;;;;;;;0.40;0.30;;;;;;;14.38;100.00;101170.72;5053941;28;20488;-72
2021/10/05 01:13:03;;;;;;;0.40;0.30;;;;;;;14.39;100.00;101166.91;5053615;28;20442;-72
2021/10/05 01:15:30;;;;;;;0.40;0.30;;;;;;;14.38;100.00;101168.00;5053908;28;20446;-70
2021/10/05 01:17:56;;;;;;;0.50;0.40;;;;;;;14.38;100.00;101151.66;5053481;28;20513;-71
2021/10/05 01:20:24;;;;;;;0.40;0.30;;;;;;;14.45;100.00;101137.59;5053559;28;20429;-71
2021/10/05 01:22:52;;;;;;;0.40;0.30;;;;;;;14.44;100.00;101146.88;5053350;28;20482;-70
2021/10/05 01:25:20;;;;;;;0.80;0.80;;;;;;;14.41;100.00;101133.06;5053745;28;20863;-71
2021/10/05 01:27:48;;;;;;;0.40;0.30;;;;;;;14.42;100.00;101124.56;5053563;28;20450;-71
2021/10/05 01:30:15;;;;;;;0.40;0.20;;;;;;;14.37;100.00;101117.34;5053585;28;20434;-70
2021/10/05 01:32:42;;;;;;;0.40;0.30;;;;;;;14.43;100.00;101119.91;5053540;28;20438;-71
2021/10/05 01:35:10;;;;;;;0.40;0.30;;;;;;;14.42;100.00;101113.66;5053520;28;20446;-71
2021/10/05 01:37:36;;;;;;;0.40;0.30;;;;;;;14.39;100.00;101123.28;5053122;28;20435;-70
2021/10/05 01:40:06;;;;;;;0.40;0.20;;;;;;;14.32;100.00;101112.03;5053396;28;20443;-71
2021/10/05 01:42:33;;;;;;;0.40;0.20;;;;;;;14.28;100.00;101111.03;5053582;28;20477;-71
2021/10/05 01:44:59;;;;;;;0.40;0.30;;;;;;;14.26;100.00;101118.75;5053304;28;20438;-71
2021/10/05 01:47:26;;;;;;;0.40;0.30;;;;;;;14.23;100.00;101124.81;5053262;28;20449;-70
2021/10/05 01:49:52;;;;;;;0.40;0.30;;;;;;;14.21;100.00;101126.22;5053322;28;20798;-70
2021/10/05 01:52:19;;;;;;;0.40;0.30;;;;;;;14.24;100.00;101120.97;5053249;28;20446;-70
2021/10/05 01:54:45;;;;;;;0.40;0.27;;;;;;;14.26;100.00;101115.22;5054629;28;20446;-70
2021/10/05 01:57:13;;;;;;;0.40;0.30;;;;;;;14.30;100.00;101114.28;5053248;28;20438;-71
2021/10/05 01:59:39;;;;;;;0.40;0.20;;;;;;;14.30;100.00;101097.91;5052147;28;20866;-70
2021/10/05 02:02:06;;;;;;;0.40;0.30;;;;;;;14.32;100.00;101101.13;5053093;28;20482;-70
2021/10/05 02:04:33;;;;;;;0.57;0.30;;;;;;;14.34;100.00;101104.34;5053171;28;20449;-71
2021/10/05 02:06:59;;;;;;;1.20;1.13;;;;;;;14.31;100.00;101101.44;5052777;28;20943;-71
2021/10/05 02:09:26;;;;;;;0.40;0.30;;;;;;;14.36;100.00;101083.03;5053090;28;20835;-71
2021/10/05 02:11:53;;;;;;;0.40;0.20;;;;;;;14.40;100.00;101094.13;5053091;28;20461;-71
2021/10/05 02:14:21;;;;;;;0.40;0.30;;;;;;;14.34;100.00;101077.09;5053045;28;20442;-70
2021/10/05 02:16:47;;;;;;;0.40;0.30;;;;;;;14.35;100.00;101075.97;5053078;28;20442;-70
2021/10/05 02:19:14;;;;;;;0.40;0.20;;;;;;;14.33;100.00;101078.19;5052551;28;20489;-70
2021/10/05 02:21:40;;;;;;;0.40;0.30;;;;;;;14.33;100.00;101083.66;5052907;28;20493;-70
2021/10/05 02:26:52;;;;;;;0.40;0.30;;;;;;;14.32;100.00;101079.31;5052757;28;20540;-70
2021/10/05 02:29:19;;;;;;;0.40;0.30;;;;;;;14.32;100.00;101073.06;5052550;28;20998;-70
2021/10/05 02:31:47;;;;;;;0.40;0.27;;;;;;;14.36;100.00;101069.41;5052888;28;20529;-70
2021/10/05 02:34:13;;;;;;;0.40;0.20;;;;;;;14.36;100.00;101061.22;5052869;28;20437;-70
2021/10/05 02:36:41;;;;;;;0.90;0.87;;;;;;;14.35;100.00;101054.19;5052856;28;20442;-70
2021/10/05 02:39:07;;;;;;;0.40;0.30;;;;;;;14.27;100.00;101049.50;5052828;28;20470;-71
2021/10/05 02:41:34;;;;;;;0.40;0.20;;;;;;;14.26;100.00;101050.63;5052741;28;20446;-70
2021/10/05 02:44:01;;;;;;;0.40;0.30;;;;;;;14.23;100.00;101048.50;5052789;28;20454;-70
2021/10/05 02:46:28;;;;;;;0.40;0.30;;;;;;;14.23;99.81;101039.53;5052474;28;20935;-71
2021/10/05 02:48:55;;;;;;;0.40;0.20;;;;;;;14.27;100.00;101041.31;5052696;28;20826;-70
2021/10/05 02:51:22;;;;;;;0.40;0.30;;;;;;;14.30;100.00;101034.44;5052416;28;20958;-70
2021/10/05 02:53:48;;;;;;;0.40;0.27;;;;;;;14.28;100.00;101026.56;5052709;28;20438;-70
2021/10/05 02:56:15;;;;;;;0.40;0.30;;;;;;;14.29;100.00;101028.16;5052606;28;20462;-70
2021/10/05 02:58:41;;;;;;;0.40;0.30;;;;;;;14.30;100.00;101023.53;5052251;28;20816;-70
2021/10/05 03:01:08;;;;;;;0.40;0.20;;;;;;;14.31;100.00;101017.78;5052626;28;20446;-70
2021/10/05 03:03:34;;;;;;;0.40;0.30;;;;;;;14.25;100.00;101018.22;5052551;28;20486;-70
2021/10/05 03:06:02;;;;;;;0.40;0.30;;;;;;;14.32;100.00;101019.38;5052574;28;20446;-71
2021/10/05 03:08:29;;;;;;;0.40;0.23;;;;;;;14.36;100.00;101014.09;5052477;28;20462;-70
2021/10/05 03:10:56;;;;;;;0.40;0.30;;;;;;;14.31;100.00;101004.16;5053305;28;20946;-69
2021/10/05 03:13:23;;;;;;;0.40;0.30;;;;;;;14.28;100.00;101001.25;5056202;28;20477;-69
2021/10/05 03:15:49;;;;;;;0.40;0.20;;;;;;;14.25;98.66;100991.75;5056173;28;20441;-70
2021/10/05 03:18:15;;;;;;;0.40;0.30;;;;;;;14.25;98.54;100989.03;5055833;28;20474;-71
2021/10/05 03:20:43;;;;;;;0.40;0.20;;;;;;;14.28;99.24;100990.34;5056066;28;20442;-72
2021/10/05 03:23:10;;;;;;;0.40;0.30;;;;;;;14.30;99.44;100969.84;5055978;28;20536;-72
2021/10/05 03:25:37;;;;;;;0.40;0.20;;;;;;;14.31;99.95;100973.38;5055960;28;20441;-72
2021/10/05 03:28:03;;;;;;;0.40;0.30;;;;;;;14.34;99.88;100975.44;5055528;28;20462;-71
2021/10/05 03:30:30;;;;;;;0.40;0.40;;;;;;;14.35;100.00;100971.63;5055910;28;20446;-72
2021/10/05 03:32:56;;;;;;;0.50;0.30;;;;;;;14.34;100.00;100957.19;5055801;28;20445;-71
2021/10/05 03:35:23;;;;;;;0.40;0.20;;;;;;;14.34;100.00;100957.19;5055820;28;20445;-71
2021/10/05 03:37:49;;;;;;;0.40;0.30;;;;;;;14.36;100.00;100952.22;5055759;28;20466;-72
2021/10/05 03:40:17;;;;;;;1.60;1.50;;;;;;;14.34;100.00;100949.03;5055551;28;20989;-72
2021/10/05 03:42:43;;;;;;;0.40;0.20;;;;;;;14.38;100.00;100949.97;5055646;28;20481;-72
2021/10/05 03:45:10;;;;;;;0.40;0.20;;;;;;;14.35;100.00;100945.16;5055607;28;20852;-72
2021/10/05 03:47:37;;;;;;;0.40;0.30;;;;;;;14.37;100.00;100940.19;5055473;28;20446;-71
2021/10/05 03:50:05;;;;;;;0.40;0.30;;;;;;;14.37;100.00;100931.22;5055522;28;20442;-71
2021/10/05 03:52:32;;;;;;;0.40;0.23;;;;;;;14.34;100.00;100924.50;5055501;28;20457;-71
2021/10/05 03:54:58;;;;;;;0.40;0.23;;;;;;;14.32;100.00;100924.00;5055222;28;20528;-71
2021/10/05 03:57:26;;;;;;;0.40;0.30;;;;;;;14.26;100.00;100917.09;5055263;28;20454;-71
2021/10/05 03:59:53;;;;;;;0.40;0.30;;;;;;;14.25;100.00;100915.47;5055271;28;20450;-71
2021/10/05 04:02:19;;;;;;;0.40;0.30;;;;;;;14.22;99.21;100915.31;5055217;28;20540;-71
2021/10/05 04:04:45;;;;;;;1.47;1.37;;;;;;;14.14;97.84;100908.72;5055248;28;20453;-71
2021/10/05 04:07:12;;;;;;;0.40;0.30;;;;;;;14.08;97.26;100902.63;5055156;28;20453;-71
2021/10/05 04:09:38;;;;;;;0.40;0.20;;;;;;;14.09;96.96;100895.25;5055053;28;20459;-72
2021/10/05 04:12:07;;;;;;;0.40;0.30;;;;;;;14.11;98.23;100896.53;5055076;28;20442;-72
2021/10/05 04:14:34;;;;;;;0.40;0.30;;;;;;;14.07;99.70;100886.59;5054970;28;20980;-72
2021/10/05 04:17:01;;;;;;;0.40;0.30;;;;;;;14.11;100.00;100882.13;5054969;28;20453;-72
2021/10/05 04:19:27;;;;;;;0.40;0.23;;;;;;;14.07;100.00;100881.94;5054586;28;20473;-72
2021/10/05 04:21:54;;;;;;;0.40;0.30;;;;;;;13.99;100.00;100871.03;5054747;28;20836;-70
2021/10/05 04:24:21;;;;;;;0.40;0.30;;;;;;;14.00;100.00;100869.94;5054109;28;20482;-70
2021/10/05 04:26:48;;;;;;;0.40;0.20;;;;;;;14.02;100.00;100867.66;5054821;28;20443;-70
2021/10/05 04:29:14;;;;;;;0.40;0.20;;;;;;;14.02;100.00;100878.56;5054435;28;21086;-70
2021/10/05 04:31:42;;;;;;;0.40;0.20;;;;;;;14.03;100.00;100878.28;5054651;28;20457;-70
2021/10/05 04:34:09;;;;;;;0.40;0.30;;;;;;;14.05;100.00;100873.28;5054388;28;20438;-69
2021/10/05 04:36:36;;;;;;;0.40;0.30;;;;;;;14.04;100.00;100873.63;5054722;28;20446;-70
2021/10/05 04:39:02;;;;;;;0.40;0.30;;;;;;;14.03;100.00;100866.53;5054593;28;20537;-70
2021/10/05 04:41:29;;;;;;;0.40;0.30;;;;;;;14.05;100.00;100862.41;5054567;28;20457;-69
2021/10/05 04:43:55;;;;;;;0.40;0.30;;;;;;;13.96;100.00;100853.41;5054404;28;20478;-70
2021/10/05 04:46:22;;;;;;;0.40;0.30;;;;;;;13.96;100.00;100852.59;5054443;28;20445;-71
2021/10/05 04:48:50;;;;;;;0.40;0.20;;;;;;;13.97;100.00;100848.75;5054347;28;20458;-71
2021/10/05 04:51:16;;;;;;;0.53;0.53;;;;;;;14.01;100.00;100838.84;5054403;28;20442;-71
2021/10/05 04:53:43;;;;;;;0.40;0.20;;;;;;;14.02;100.00;100830.34;5054342;28;20443;-71
2021/10/05 04:56:09;;;;;;;0.40;0.30;;;;;;;14.01;100.00;100836.91;5053894;28;20927;-71
2021/10/05 04:58:36;;;;;;;0.40;0.30;;;;;;;14.02;100.00;100830.34;5054221;28;20473;-71
2021/10/05 05:01:02;;;;;;;0.40;0.30;;;;;;;13.97;100.00;100833.22;5054211;28;20450;-71
2021/10/05 05:03:29;;;;;;;0.40;0.30;;;;;;;13.86;100.00;100827.28;5054068;28;20477;-71
2021/10/05 05:05:56;;;;;;;0.40;0.30;;;;;;;13.84;100.00;100818.63;5054351;28;20442;-71
2021/10/05 05:08:23;;;;;;;0.40;0.20;;;;;;;13.71;100.00;100819.53;5053886;28;20469;-71
2021/10/05 05:10:49;;;;;;;0.40;0.30;;;;;;;13.68;100.00;100809.31;5054022;28;20442;-71
2021/10/05 05:13:16;;;;;;;0.40;0.20;;;;;;;13.70;100.00;100798.09;5053947;28;20442;-71
2021/10/05 05:15:43;;;;;;;0.50;0.50;;;;;;;13.61;100.00;100787.97;5053919;28;20446;-71
2021/10/05 05:18:09;;;;;;;0.40;0.20;;;;;;;13.61;100.00;100793.41;5053620;28;20481;-70
2021/10/05 05:20:36;;;;;;;0.40;0.30;;;;;;;13.65;100.00;100790.88;5053862;28;20652;-70
2021/10/05 05:23:03;;;;;;;0.40;0.30;;;;;;;13.65;100.00;100771.81;5053417;28;20486;-71
2021/10/05 05:25:31;;;;;;;0.40;0.30;;;;;;;13.61;100.00;100781.72;5053753;28;20446;-71
2021/10/05 05:27:58;;;;;;;0.40;0.20;;;;;;;13.57;100.00;100773.38;5053547;28;20512;-71
2021/10/05 05:30:24;;;;;;;0.40;0.20;;;;;;;13.55;100.00;100766.69;5053845;28;20450;-71
2021/10/05 05:32:50;;;;;;;0.40;0.30;;;;;;;13.58;100.00;100768.75;5053637;28;20438;-70
2021/10/05 05:35:17;;;;;;;0.40;0.30;;;;;;;13.55;100.00;100766.69;5052635;28;20845;-70
2021/10/05 05:37:43;;;;;;;0.40;0.30;;;;;;;13.52;100.00;100767.28;5053463;28;20446;-69
2021/10/05 05:40:13;;;;;;;0.40;0.30;;;;;;;13.50;100.00;100769.53;5053211;28;20449;-70
2021/10/05 05:42:39;;;;;;;0.40;0.30;;;;;;;13.42;100.00;100756.72;5053154;28;20445;-69
2021/10/05 05:45:06;;;;;;;0.40;0.30;;;;;;;13.33;100.00;100757.47;5053337;28;20438;-69
2021/10/05 05:47:32;;;;;;;0.40;0.30;;;;;;;13.38;100.00;100757.34;5053343;28;20856;-69
2021/10/05 05:49:59;;;;;;;0.40;0.30;;;;;;;13.40;100.00;100753.50;5053297;28;20814;-69
2021/10/05 05:52:26;;;;;;;0.40;0.30;;;;;;;13.42;100.00;100751.28;5053585;28;20493;-69
2021/10/05 05:54:53;;;;;;;0.40;0.20;;;;;;;13.48;100.00;100745.34;5053352;28;20454;-69
2021/10/05 05:57:20;;;;;;;0.40;0.20;;;;;;;13.51;100.00;100746.66;5053268;28;20453;-69
2021/10/05 05:59:47;;;;;;;0.40;0.30;;;;;;;13.53;100.00;100738.97;5053117;28;20462;-69
2021/10/05 06:02:13;;;;;;;0.70;0.70;;;;;;;13.37;100.00;100739.41;5053430;28;20442;-69
2021/10/05 06:04:40;;;;;;;0.40;0.23;;;;;;;13.39;100.00;100730.94;5053096;28;20486;-70
2021/10/05 06:07:06;;;;;;;0.40;0.30;;;;;;;13.40;100.00;100720.84;5053104;28;20860;-70
2021/10/05 06:09:33;;;;;;;0.40;0.30;;;;;;;13.41;100.00;100723.22;5053008;28;20465;-70
2021/10/05 06:12:02;;;;;;;0.40;0.20;;;;;;;13.46;100.00;100719.56;5053023;28;20445;-70
2021/10/05 06:14:30;;;;;;;0.40;0.30;;;;;;;13.50;100.00;100706.94;5053092;28;20449;-70
2021/10/05 06:16:57;;;;;;;0.40;0.30;;;;;;;13.53;100.00;100711.75;5053018;28;20804;-70
2021/10/05 06:19:24;;;;;;;0.40;0.20;;;;;;;13.53;100.00;100715.25;5052548;28;20481;-70
2021/10/05 06:21:51;;;;;;;0.40;0.30;;;;;;;13.48;100.00;100709.97;5053017;28;20441;-71
2021/10/05 06:24:17;;;;;;;0.40;0.23;;;;;;;13.42;100.00;100696.84;5052863;28;20478;-72
2021/10/05 06:26:44;;;;;;;0.40;0.30;;;;;;;13.45;100.00;100691.56;5052688;28;20784;-70
2021/10/05 06:29:11;;;;;;;0.40;0.20;;;;;;;13.50;100.00;100691.44;5052854;28;20474;-70
2021/10/05 06:31:39;;;;;;;0.40;0.20;;;;;;;13.50;100.00;100687.88;5052609;28;20449;-70
2021/10/05 06:34:05;;;;;;;0.40;0.30;;;;;;;13.50;100.00;100683.25;5053154;28;20434;-70
2021/10/05 06:36:32;;;;;;;0.40;0.20;;;;;;;13.43;100.00;100677.47;5052844;28;20468;-70
2021/10/05 06:38:58;;;;;;;0.40;0.30;;;;;;;13.40;100.00;100680.03;5052736;28;20533;-70
2021/10/05 06:41:25;;;;;;;0.40;0.23;;;;;;;13.42;100.00;100664.19;5052860;28;20522;-70
2021/10/05 06:43:51;;;;;;;0.40;0.20;;;;;;;13.39;100.00;100671.06;5052724;28;20501;-70
2021/10/05 06:46:18;;;;;;;0.40;0.30;;;;;;;13.42;100.00;100669.66;5054430;28;20438;-70
2021/10/05 06:48:46;;;;;;;0.40;0.20;;;;;;;13.50;100.00;100666.94;5056669;28;20492;-71
2021/10/05 06:51:13;;;;;;;1.90;1.80;;;;;;;13.60;100.00;100654.94;5056516;28;20512;-70
2021/10/05 06:53:39;;;;;;;0.40;0.30;;;;;;;13.68;100.00;100658.75;5056550;28;20448;-70
2021/10/05 06:56:06;;;;;;;0.40;0.33;;;;;;;13.74;100.00;100639.22;5056578;28;20457;-70
2021/10/05 06:58:33;;;;;;;0.40;0.30;;;;;;;13.74;100.00;100639.22;5056326;28;20462;-70
2021/10/05 07:00:59;;;;;;;0.40;0.20;;;;;;;13.84;100.00;100633.47;5056459;28;20452;-70
2021/10/05 07:03:26;;;;;;;0.40;0.30;;;;;;;13.91;100.00;100621.28;5056357;28;20489;-70
2021/10/05 07:05:54;;;;;;;0.40;0.30;;;;;;;13.98;100.00;100621.59;5056390;28;20809;-70
2021/10/05 07:08:20;;;;;;;1.50;1.40;;;;;;;14.05;100.00;100611.00;5056283;28;20472;-70
2021/10/05 07:10:47;;;;;;;0.40;0.30;;;;;;;14.00;100.00;100606.53;5056251;28;20442;-70
2021/10/05 07:13:13;;;;;;;0.40;0.30;;;;;;;13.96;100.00;100591.97;5056206;28;20449;-70
2021/10/05 07:15:39;;;;;;;0.40;0.30;;;;;;;13.97;100.00;100590.03;5056156;28;20504;-71
2021/10/05 07:18:06;;;;;;;0.40;0.30;;;;;;;13.98;100.00;100591.63;5055838;28;20481;-71
2021/10/05 07:20:33;;;;;;;0.53;0.53;;;;;;;14.00;100.00;100584.75;5055608;28;20462;-72
2021/10/05 07:23:01;;;;;;;0.40;0.20;;;;;;;13.97;100.00;100582.66;5055918;28;20446;-72
2021/10/05 07:25:29;;;;;;;1.50;1.40;;;;;;;14.02;100.00;100581.69;5056040;28;20442;-71
2021/10/05 07:27:56;;;;;;;0.40;0.23;;;;;;;14.08;100.00;100577.69;5055962;28;20480;-71
2021/10/05 07:30:24;;;;;;;0.40;0.30;;;;;;;14.11;100.00;100574.28;5055940;28;20544;-72
2021/10/05 07:32:52;;;;;;;0.40;0.30;;;;;;;14.11;100.00;100571.56;5055879;28;20445;-71
2021/10/05 07:35:19;;;;;;;0.40;0.30;;;;;;;14.14;100.00;100568.22;5055852;28;20446;-70
2021/10/05 07:37:46;;;;;;;0.40;0.20;;;;;;;14.16;100.00;100565.94;5055677;28;20477;-71
2021/10/05 07:40:16;;;;;;;0.40;0.30;;;;;;;14.20;100.00;100566.09;5055775;28;20527;-71
2021/10/05 07:42:43;;;;;;;0.40;0.30;;;;;;;14.24;100.00;100556.94;5055980;28;20446;-70
2021/10/05 07:45:10;;;;;;;0.40;0.30;;;;;;;14.19;100.00;100548.94;5055603;28;20496;-71
2021/10/05 07:47:37;;;;;;;0.40;0.20;;;;;;;14.21;100.00;100548.63;5055235;28;20453;-71
2021/10/05 07:50:04;;;;;;;0.40;0.30;;;;;;;14.26;100.00;100537.56;5055242;28;20936;-71
2021/10/05 07:52:30;;;;;;;0.40;0.30;;;;;;;14.32;100.00;100531.59;5055210;28;20851;-71
2021/10/05 07:54:57;;;;;;;0.40;0.20;;;;;;;14.33;100.00;100527.75;5055401;28;20442;-71
2021/10/05 07:57:25;;;;;;;0.40;0.20;;;;;;;14.42;100.00;100516.00;5054037;28;20819;-71
2021/10/05 07:59:52;;;;;;;0.40;0.30;;;;;;;14.48;100.00;100506.53;5055368;28;20817;-72
2021/10/05 08:02:19;;;;;;;0.40;0.30;;;;;;;14.42;100.00;100505.09;5055304;28;20500;-71
2021/10/05 08:04:46;;;;;;;0.40;0.30;;;;;;;14.41;100.00;100503.50;5055232;28;20573;-72
2021/10/05 08:07:12;;;;;;;0.40;0.30;;;;;;;14.43;100.00;100491.13;5055263;28;20445;-71
2021/10/05 08:09:39;;;;;;;0.40;0.30;;;;;;;14.28;100.00;100486.25;5055118;28;20462;-73
2021/10/05 08:12:06;;;;;;;0.40;0.30;;;;;;;14.34;100.00;100476.75;5054901;28;20495;-72
2021/10/05 08:14:34;;;;;;;0.40;0.30;;;;;;;14.24;100.00;100467.03;5055123;28;20438;-70
2021/10/05 08:17:00;;;;;;;0.40;0.20;;;;;;;14.21;100.00;100462.25;5055020;28;20811;-70
2021/10/05 08:19:27;;;;;;;0.40;0.20;;;;;;;14.22;100.00;100461.13;5054534;28;20485;-71
2021/10/05 08:21:54;;;;;;;0.40;0.30;;;;;;;14.27;100.00;100444.59;5054803;28;20446;-70
2021/10/05 08:24:22;;;;;;;0.40;0.30;;;;;;;14.37;100.00;100452.38;5054749;28;20482;-69
2021/10/05 08:26:48;;;;;;;0.40;0.30;;;;;;;14.44;100.00;100451.09;5054687;28;20485;-70
2021/10/05 08:29:18;;;;;;;0.40;0.20;;;;;;;14.51;100.00;100445.91;5054509;28;20983;-69
2021/10/05 08:31:46;;;;;;;0.40;0.20;;;;;;;14.49;100.00;100448.19;5054854;28;20800;-70
2021/10/05 08:34:12;;;;;;;0.40;0.20;;;;;;;14.53;100.00;100443.69;5054790;28;20443;-70
2021/10/05 08:36:39;;;;;;;0.40;0.30;;;;;;;14.55;100.00;100447.66;5054657;28;20446;-70
2021/10/05 08:39:06;;;;;;;0.40;0.20;;;;;;;14.57;100.00;100452.78;5054553;28;20462;-70
2021/10/05 08:41:32;;;;;;;0.40;0.20;;;;;;;14.59;100.00;100472.31;5054668;28;20450;-70
2021/10/05 08:43:59;;;;;;;0.70;0.70;;;;;;;14.54;100.00;100465.13;5054421;28;20481;-70
2021/10/05 08:46:27;;;;;;;0.40;0.30;;;;;;;14.51;100.00;100467.72;5054550;28;20469;-70
2021/10/05 08:48:55;;;;;;;0.40;0.30;;;;;;;14.49;100.00;100464.53;5054208;28;20465;-70
2021/10/05 08:51:21;;;;;;;0.40;0.30;;;;;;;14.50;100.00;100458.75;5054340;28;20450;-70
2021/10/05 08:53:48;;;;;;;0.40;0.30;;;;;;;14.55;100.00;100457.75;5054289;28;20438;-70
2021/10/05 08:56:15;;;;;;;0.40;0.30;;;;;;;14.52;100.00;100439.31;5054346;28;20445;-70
2021/10/05 08:58:42;;;;;;;0.40;0.30;;;;;;;14.52;100.00;100439.31;5054211;28;20462;-70
2021/10/05 09:01:10;;;;;;;0.40;0.23;;;;;;;14.49;100.00;100445.47;5054160;28;20496;-70
2021/10/05 09:03:38;;;;;;;0.40;0.20;;;;;;;14.42;100.00;100439.69;5054077;28;20461;-70
2021/10/05 09:06:13;;;;;;;0.40;0.30;;;;;;;14.41;100.00;100429.94;5053835;28;20889;-70
2021/10/05 09:08:41;;;;;;;0.40;0.30;;;;;;;14.41;100.00;100427.19;5053658;28;20464;-70
2021/10/05 09:11:09;;;;;;;0.40;0.20;;;;;;;14.36;100.00;100426.25;5053990;28;20472;-70
2021/10/05 09:13:38;;;;;;;0.40;0.30;;;;;;;14.30;100.00;100426.81;5053754;28;20948;-70
2021/10/05 09:16:15;;;;;;;0.40;0.30;;;;;;;14.34;100.00;100416.81;5054035;28;20442;-70
2021/10/05 09:18:51;;;;;;;0.50;0.40;;;;;;;14.35;100.00;100411.06;5053561;28;20478;-70
2021/10/05 09:21:19;;;;;;;0.40;0.20;;;;;;;14.37;100.00;100416.16;5053869;28;20434;-71
2021/10/05 09:23:52;;;;;;;0.40;0.20;;;;;;;14.36;100.00;100417.28;5053793;28;20453;-71
2021/10/05 09:26:19;;;;;;;0.40;0.30;;;;;;;14.34;100.00;100404.00;5053788;28;20418;-70
2021/10/05 09:28:45;;;;;;;1.27;1.27;;;;;;;14.37;100.00;100400.59;5053627;28;20458;-70
2021/10/05 09:31:12;;;;;;;0.40;0.30;;;;;;;14.44;100.00;100402.03;5053694;28;20458;-71
2021/10/05 09:33:38;;;;;;;0.40;0.20;;;;;;;14.43;100.00;100408.59;5053743;28;20454;-70
2021/10/05 09:36:06;;;;;;;0.40;0.30;;;;;;;14.42;100.00;100391.44;5053561;28;20449;-71
2021/10/05 09:38:34;;;;;;;0.50;0.50;;;;;;;14.44;100.00;100399.31;5053634;28;20556;-71
2021/10/05 09:41:03;;;;;;;0.40;0.30;;;;;;;14.42;100.00;100401.53;5053541;28;20449;-70
2021/10/05 09:43:31;;;;;;;0.80;0.70;;;;;;;14.45;100.00;100388.06;5053519;28;20446;-71
2021/10/05 09:46:11;;;;;;;0.40;0.30;;;;;;;14.36;100.00;100387.31;5053325;28;20486;-71
2021/10/05 09:48:38;;;;;;;0.40;0.20;;;;;;;14.32;100.00;100381.72;5052995;28;20474;-71
2021/10/05 09:51:16;;;;;;;0.40;0.30;;;;;;;14.31;100.00;100385.59;5053058;28;20801;-70
2021/10/05 09:53:44;;;;;;;0.40;0.30;;;;;;;14.30;100.00;100375.81;5053358;28;20422;-71
2021/10/05 09:56:12;;;;;;;0.50;0.50;;;;;;;14.34;100.00;100367.75;5053173;28;20461;-71
2021/10/05 09:58:39;;;;;;;0.63;0.63;;;;;;;14.38;100.00;100369.50;5053137;28;20520;-71
2021/10/05 10:01:06;;;;;;;0.40;0.30;;;;;;;14.39;100.00;100365.66;5053224;28;20442;-72
2021/10/05 10:03:34;;;;;;;0.40;0.20;;;;;;;14.35;100.00;100366.66;5053174;28;20434;-71
2021/10/05 10:06:01;;;;;;;0.40;0.30;;;;;;;14.34;100.00;100357.69;5052758;28;21025;-69
2021/10/05 10:08:29;;;;;;;0.40;0.27;;;;;;;14.31;100.00;100358.34;5053046;28;20466;-72
2021/10/05 10:10:57;;;;;;;0.40;0.30;;;;;;;14.33;100.00;100347.09;5053069;28;20541;-75
2021/10/05 10:13:24;;;;;;;0.40;0.30;;;;;;;14.34;100.00;100344.06;5053237;28;20553;-76
2021/10/05 10:15:53;;;;;;;0.40;0.30;;;;;;;14.39;100.00;100341.13;5053049;28;20453;-71
2021/10/05 10:18:22;;;;;;;0.40;0.30;;;;;;;14.43;100.00;100335.78;5052770;28;20478;-71
2021/10/05 10:21:01;;;;;;;0.50;0.40;;;;;;;14.41;100.00;100331.81;5053934;28;20488;-71
2021/10/05 10:23:31;;;;;;;0.40;0.20;;;;;;;14.43;100.00;100321.38;5056917;28;20796;-72
2021/10/05 10:26:02;;;;;;;0.77;0.77;;;;;;;14.42;100.00;100309.69;5057024;28;20489;-71
2021/10/05 10:28:33;;;;;;;0.73;0.73;;;;;;;14.48;100.00;100313.84;5057065;28;20505;-71
2021/10/05 10:31:03;;;;;;;0.50;0.40;;;;;;;14.54;100.00;100293.41;5056840;28;20900;-72
2021/10/05 10:33:43;;;;;;;0.40;0.30;;;;;;;14.61;100.00;100290.16;5057110;28;20525;-72
2021/10/05 10:36:10;;;;;;;0.40;0.30;;;;;;;14.64;100.00;100303.09;5057061;28;20833;-70
2021/10/05 10:38:42;;;;;;;0.40;0.30;;;;;;;14.68;100.00;100301.31;5056904;28;20474;-71
2021/10/05 10:41:17;;;;;;;0.60;0.60;;;;;;;14.73;100.00;100297.56;5056859;28;20434;-71
2021/10/05 10:43:51;;;;;;;0.40;0.30;;;;;;;14.78;100.00;100302.81;5056967;28;20434;-72
2021/10/05 10:46:24;;;;;;;0.40;0.27;;;;;;;14.79;100.00;100294.31;5056711;28;20493;-71
2021/10/05 10:48:54;;;;;;;0.40;0.20;;;;;;;14.84;100.00;100294.09;5056436;28;20454;-72
2021/10/05 10:51:21;;;;;;;0.40;0.30;;;;;;;14.84;100.00;100291.38;5057443;28;20442;-71
2021/10/05 10:53:50;;;;;;;0.40;0.30;;;;;;;14.87;100.00;100298.88;5056658;28;20496;-72
2021/10/05 10:56:28;;;;;;;1.17;0.77;;;;;;;14.84;100.00;100285.91;5056658;28;20465;-71
2021/10/05 10:58:59;;;;;;;0.40;0.30;;;;;;;14.85;100.00;100282.03;5056503;28;20476;-71
2021/10/05 11:01:35;;;;;;;0.40;0.30;;;;;;;14.86;100.00;100277.38;5056543;28;20438;-71
2021/10/05 11:04:03;;;;;;;0.40;0.30;;;;;;;14.82;100.00;100280.00;5056171;28;20922;-72
2021/10/05 11:06:30;;;;;;;1.07;0.73;;;;;;;14.81;100.00;100289.31;5056090;28;20999;-71
2021/10/05 11:08:58;;;;;;;0.40;0.20;;;;;;;14.83;100.00;100281.59;5056311;28;20465;-71
2021/10/05 11:11:37;;;;;;;0.40;0.20;;;;;;;14.84;100.00;100282.41;5056618;28;20529;-72
2021/10/05 11:14:06;;;;;;;0.40;0.20;;;;;;;14.84;100.00;100275.00;5056141;28;20446;-72
2021/10/05 11:16:34;;;;;;;0.40;0.20;;;;;;;14.89;100.00;100268.53;5056267;28;20446;-72
2021/10/05 11:19:12;;;;;;;0.40;0.30;;;;;;;14.87;100.00;100265.34;5055969;28;20485;-71
2021/10/05 11:21:40;;;;;;;0.40;0.30;;;;;;;14.92;100.00;100267.88;5055905;28;20798;-72